sensor_id;sensor_type;location;lat;lon;timestamp;temperature;humidity
69082;DHT22;69029;51.986;5.760;2023-05-07T00:00:33;16.00;99.90
69082;DHT22;69029;51.986;5.760;2023-05-07T00:02:59;16.00;99.90
69082;DHT22;69029;51.986;5.760;2023-05-07T00:05:25;16.00;99.90
69082;DHT22;69029;51.986;5.760;2023-05-07T00:07:51;15.90;99.90
69082;DHT22;69029;51.986;5.760;2023-05-07T00:10:18;16.00;99.90
69082;DHT22;69029;51.986;5.760;2023-05-07T00:12:44;15.90;99.90
69082;DHT22;69029;51.986;5.760;2023-05-07T00:15:10;15.90;99.90
69082;DHT22;69029;51.986;5.760;2023-05-07T00:17:36;15.90;99.90
69082;DHT22;69029;51.986;5.760;2023-05-07T00:20:03;15.90;99.90
69082;DHT22;69029;51.986;5.760;2023-05-07T00:22:30;15.90;99.90
69082;DHT22;69029;51.986;5.760;2023-05-07T00:24:56;15.90;99.90
69082;DHT22;69029;51.986;5.760;2023-05-07T00:27:22;15.80;99.90
69082;DHT22;69029;51.986;5.760;2023-05-07T00:29:48;15.80;99.90
69082;DHT22;69029;51.986;5.760;2023-05-07T00:32:14;15.80;99.90
69082;DHT22;69029;51.986;5.760;2023-05-07T00:34:40;15.80;99.90
69082;DHT22;69029;51.986;5.760;2023-05-07T00:37:05;15.70;99.90
69082;DHT22;69029;51.986;5.760;2023-05-07T00:39:33;15.70;98.50
69082;DHT22;69029;51.986;5.760;2023-05-07T00:41:59;15.70;99.90
69082;DHT22;69029;51.986;5.760;2023-05-07T00:44:25;15.60;98.10
69082;DHT22;69029;51.986;5.760;2023-05-07T00:46:51;15.60;99.90
69082;DHT22;69029;51.986;5.760;2023-05-07T00:49:18;15.50;99.40
69082;DHT22;69029;51.986;5.760;2023-05-07T00:51:44;15.50;99.90
69082;DHT22;69029;51.986;5.760;2023-05-07T00:54:11;15.50;99.90
69082;DHT22;69029;51.986;5.760;2023-05-07T00:56:36;15.40;98.70
69082;DHT22;69029;51.986;5.760;2023-05-07T00:59:03;15.30;99.90
69082;DHT22;69029;51.986;5.760;2023-05-07T01:01:28;15.30;99.90
69082;DHT22;69029;51.986;5.760;2023-05-07T01:03:55;15.30;98.70
69082;DHT22;69029;51.986;5.760;2023-05-07T01:06:21;15.30;99.90
69082;DHT22;69029;51.986;5.760;2023-05-07T01:08:48;15.30;99.90
69082;DHT22;69029;51.986;5.760;2023-05-07T01:11:17;15.30;99.90
69082;DHT22;69029;51.986;5.760;2023-05-07T01:13:44;15.20;99.90
69082;DHT22;69029;51.986;5.760;2023-05-07T01:16:11;15.20;99.90
69082;DHT22;69029;51.986;5.760;2023-05-07T01:18:36;15.20;99.90
69082;DHT22;69029;51.986;5.760;2023-05-07T01:21:04;15.20;99.90
69082;DHT22;69029;51.986;5.760;2023-05-07T01:23:30;15.20;99.90
69082;DHT22;69029;51.986;5.760;2023-05-07T01:25:56;15.20;99.90
69082;DHT22;69029;51.986;5.760;2023-05-07T01:28:22;15.20;99.90
69082;DHT22;69029;51.986;5.760;2023-05-07T01:31:02;15.20;99.90
69082;DHT22;69029;51.986;5.760;2023-05-07T01:33:35;15.20;99.90
69082;DHT22;69029;51.986;5.760;2023-05-07T01:36:03;15.20;99.90
69082;DHT22;69029;51.986;5.760;2023-05-07T01:38:31;15.20;99.90
69082;DHT22;69029;51.986;5.760;2023-05-07T01:40:58;15.20;99.90
69082;DHT22;69029;51.986;5.760;2023-05-07T01:43:23;15.20;99.90
69082;DHT22;69029;51.986;5.760;2023-05-07T01:45:50;15.20;99.90
69082;DHT22;69029;51.986;5.760;2023-05-07T01:48:16;15.20;99.90
69082;DHT22;69029;51.986;5.760;2023-05-07T01:50:43;15.20;99.90
69082;DHT22;69029;51.986;5.760;2023-05-07T01:53:09;15.20;99.90
69082;DHT22;69029;51.986;5.760;2023-05-07T01:55:35;15.20;99.90
69082;DHT22;69029;51.986;5.760;2023-05-07T01:58:02;15.20;99.90
69082;DHT22;69029;51.986;5.760;2023-05-07T02:00:28;15.20;99.90
69082;DHT22;69029;51.986;5.760;2023-05-07T02:02:54;15.20;99.90
69082;DHT22;69029;51.986;5.760;2023-05-07T02:05:20;15.20;99.90
69082;DHT22;69029;51.986;5.760;2023-05-07T02:07:45;15.20;99.90
69082;DHT22;69029;51.986;5.760;2023-05-07T02:10:11;15.20;99.90
69082;DHT22;69029;51.986;5.760;2023-05-07T02:12:36;15.20;99.90
69082;DHT22;69029;51.986;5.760;2023-05-07T02:15:02;15.10;99.90
69082;DHT22;69029;51.986;5.760;2023-05-07T02:17:28;15.10;99.90
69082;DHT22;69029;51.986;5.760;2023-05-07T02:19:57;15.10;99.90
69082;DHT22;69029;51.986;5.760;2023-05-07T02:22:22;15.10;99.90
69082;DHT22;69029;51.986;5.760;2023-05-07T02:24:48;15.10;99.90
69082;DHT22;69029;51.986;5.760;2023-05-07T02:27:14;15.20;99.90
69082;DHT22;69029;51.986;5.760;2023-05-07T02:29:40;15.10;99.90
69082;DHT22;69029;51.986;5.760;2023-05-07T02:32:06;15.10;99.90
69082;DHT22;69029;51.986;5.760;2023-05-07T02:34:31;15.10;99.90
69082;DHT22;69029;51.986;5.760;2023-05-07T02:36:57;15.10;99.90
69082;DHT22;69029;51.986;5.760;2023-05-07T02:39:22;15.10;99.90
69082;DHT22;69029;51.986;5.760;2023-05-07T02:41:48;15.10;99.90
69082;DHT22;69029;51.986;5.760;2023-05-07T02:44:13;15.10;99.90
69082;DHT22;69029;51.986;5.760;2023-05-07T02:46:39;15.10;99.90
69082;DHT22;69029;51.986;5.760;2023-05-07T02:49:05;15.10;99.90
69082;DHT22;69029;51.986;5.760;2023-05-07T02:51:31;15.10;99.90
69082;DHT22;69029;51.986;5.760;2023-05-07T02:53:56;15.10;99.90
69082;DHT22;69029;51.986;5.760;2023-05-07T02:56:22;15.10;99.90
69082;DHT22;69029;51.986;5.760;2023-05-07T02:58:49;15.10;99.90
69082;DHT22;69029;51.986;5.760;2023-05-07T03:01:15;15.10;99.90
69082;DHT22;69029;51.986;5.760;2023-05-07T03:03:40;15.10;99.90
69082;DHT22;69029;51.986;5.760;2023-05-07T03:06:07;15.10;99.90
69082;DHT22;69029;51.986;5.760;2023-05-07T03:08:33;15.10;99.90
69082;DHT22;69029;51.986;5.760;2023-05-07T03:10:59;15.10;99.90
69082;DHT22;69029;51.986;5.760;2023-05-07T03:13:24;15.10;99.90
69082;DHT22;69029;51.986;5.760;2023-05-07T03:15:50;15.10;99.90
69082;DHT22;69029;51.986;5.760;2023-05-07T03:18:16;15.00;99.90
69082;DHT22;69029;51.986;5.760;2023-05-07T03:20:41;15.00;99.90
69082;DHT22;69029;51.986;5.760;2023-05-07T03:23:07;15.00;99.90
69082;DHT22;69029;51.986;5.760;2023-05-07T03:25:32;15.00;99.90
69082;DHT22;69029;51.986;5.760;2023-05-07T03:27:58;15.00;99.90
69082;DHT22;69029;51.986;5.760;2023-05-07T03:30:24;15.00;99.90
69082;DHT22;69029;51.986;5.760;2023-05-07T03:32:50;15.00;99.90
69082;DHT22;69029;51.986;5.760;2023-05-07T03:35:15;15.00;99.90
69082;DHT22;69029;51.986;5.760;2023-05-07T03:37:41;15.00;99.90
69082;DHT22;69029;51.986;5.760;2023-05-07T03:40:07;15.00;99.90
69082;DHT22;69029;51.986;5.760;2023-05-07T03:42:35;15.00;99.90
69082;DHT22;69029;51.986;5.760;2023-05-07T03:45:01;15.00;99.90
69082;DHT22;69029;51.986;5.760;2023-05-07T03:47:27;15.00;99.90
69082;DHT22;69029;51.986;5.760;2023-05-07T03:49:52;15.00;99.90
69082;DHT22;69029;51.986;5.760;2023-05-07T03:52:19;15.00;99.90
69082;DHT22;69029;51.986;5.760;2023-05-07T03:54:49;15.00;99.90
69082;DHT22;69029;51.986;5.760;2023-05-07T03:57:14;15.00;99.90
69082;DHT22;69029;51.986;5.760;2023-05-07T03:59:40;15.00;99.90
69082;DHT22;69029;51.986;5.760;2023-05-07T04:02:06;15.00;99.90
69082;DHT22;69029;51.986;5.760;2023-05-07T04:04:34;15.00;99.90
69082;DHT22;69029;51.986;5.760;2023-05-07T04:07:00;15.00;99.90
69082;DHT22;69029;51.986;5.760;2023-05-07T04:09:26;15.00;99.90
69082;DHT22;69029;51.986;5.760;2023-05-07T04:11:51;15.00;99.90
69082;DHT22;69029;51.986;5.760;2023-05-07T04:14:17;15.00;99.90
69082;DHT22;69029;51.986;5.760;2023-05-07T04:16:42;15.00;99.90
69082;DHT22;69029;51.986;5.760;2023-05-07T04:19:08;15.10;99.90
69082;DHT22;69029;51.986;5.760;2023-05-07T04:21:33;15.10;99.90
69082;DHT22;69029;51.986;5.760;2023-05-07T04:23:59;15.10;99.90
69082;DHT22;69029;51.986;5.760;2023-05-07T04:26:25;15.10;99.90
69082;DHT22;69029;51.986;5.760;2023-05-07T04:28:50;15.10;99.90
69082;DHT22;69029;51.986;5.760;2023-05-07T04:31:16;15.10;99.90
69082;DHT22;69029;51.986;5.760;2023-05-07T04:33:41;15.10;99.90
69082;DHT22;69029;51.986;5.760;2023-05-07T04:36:07;15.10;99.90
69082;DHT22;69029;51.986;5.760;2023-05-07T04:38:33;15.20;99.90
69082;DHT22;69029;51.986;5.760;2023-05-07T04:41:03;15.10;99.90
69082;DHT22;69029;51.986;5.760;2023-05-07T04:43:29;15.20;99.90
69082;DHT22;69029;51.986;5.760;2023-05-07T04:45:55;15.20;99.90
69082;DHT22;69029;51.986;5.760;2023-05-07T04:48:20;15.20;99.90
69082;DHT22;69029;51.986;5.760;2023-05-07T04:50:50;15.30;99.90
69082;DHT22;69029;51.986;5.760;2023-05-07T04:53:16;15.30;99.90
69082;DHT22;69029;51.986;5.760;2023-05-07T04:55:43;15.30;99.90
69082;DHT22;69029;51.986;5.760;2023-05-07T04:58:08;15.30;99.90
69082;DHT22;69029;51.986;5.760;2023-05-07T05:00:34;15.20;99.90
69082;DHT22;69029;51.986;5.760;2023-05-07T05:03:00;15.30;99.90
69082;DHT22;69029;51.986;5.760;2023-05-07T05:05:25;15.30;99.90
69082;DHT22;69029;51.986;5.760;2023-05-07T05:07:51;15.30;99.90
69082;DHT22;69029;51.986;5.760;2023-05-07T05:10:17;15.30;99.90
69082;DHT22;69029;51.986;5.760;2023-05-07T05:12:43;15.30;99.90
69082;DHT22;69029;51.986;5.760;2023-05-07T05:15:09;15.30;99.90
69082;DHT22;69029;51.986;5.760;2023-05-07T05:17:35;15.40;99.90
69082;DHT22;69029;51.986;5.760;2023-05-07T05:20:02;15.40;99.90
69082;DHT22;69029;51.986;5.760;2023-05-07T05:22:27;15.40;99.90
69082;DHT22;69029;51.986;5.760;2023-05-07T05:24:56;15.40;99.90
69082;DHT22;69029;51.986;5.760;2023-05-07T05:27:21;15.50;99.90
69082;DHT22;69029;51.986;5.760;2023-05-07T05:29:47;15.50;99.90
69082;DHT22;69029;51.986;5.760;2023-05-07T05:32:13;15.50;99.90
69082;DHT22;69029;51.986;5.760;2023-05-07T05:34:39;15.60;99.90
69082;DHT22;69029;51.986;5.760;2023-05-07T05:37:05;15.60;99.90
69082;DHT22;69029;51.986;5.760;2023-05-07T05:39:30;15.70;99.90
69082;DHT22;69029;51.986;5.760;2023-05-07T05:41:56;15.70;99.90
69082;DHT22;69029;51.986;5.760;2023-05-07T05:44:22;15.70;99.90
69082;DHT22;69029;51.986;5.760;2023-05-07T05:46:47;15.70;99.90
69082;DHT22;69029;51.986;5.760;2023-05-07T05:49:15;15.80;99.90
69082;DHT22;69029;51.986;5.760;2023-05-07T05:51:40;15.80;99.90
69082;DHT22;69029;51.986;5.760;2023-05-07T05:54:06;15.90;99.90
69082;DHT22;69029;51.986;5.760;2023-05-07T05:56:31;15.90;99.90
69082;DHT22;69029;51.986;5.760;2023-05-07T05:58:57;15.90;99.90
69082;DHT22;69029;51.986;5.760;2023-05-07T06:01:23;16.00;99.90
69082;DHT22;69029;51.986;5.760;2023-05-07T06:03:48;16.00;99.90
69082;DHT22;69029;51.986;5.760;2023-05-07T06:06:14;16.00;99.90
69082;DHT22;69029;51.986;5.760;2023-05-07T06:08:40;16.00;99.90
69082;DHT22;69029;51.986;5.760;2023-05-07T06:11:06;16.00;99.90
69082;DHT22;69029;51.986;5.760;2023-05-07T06:13:32;16.00;99.90
69082;DHT22;69029;51.986;5.760;2023-05-07T06:15:58;16.10;99.90
69082;DHT22;69029;51.986;5.760;2023-05-07T06:18:23;16.20;99.90
69082;DHT22;69029;51.986;5.760;2023-05-07T06:20:49;16.20;99.90
69082;DHT22;69029;51.986;5.760;2023-05-07T06:23:15;16.30;99.90
69082;DHT22;69029;51.986;5.760;2023-05-07T06:25:40;16.30;99.90
69082;DHT22;69029;51.986;5.760;2023-05-07T06:28:06;16.40;99.90
69082;DHT22;69029;51.986;5.760;2023-05-07T06:30:33;16.40;98.50
69082;DHT22;69029;51.986;5.760;2023-05-07T06:32:59;16.50;99.90
69082;DHT22;69029;51.986;5.760;2023-05-07T06:35:26;16.70;99.90
69082;DHT22;69029;51.986;5.760;2023-05-07T06:37:51;16.70;99.10
69082;DHT22;69029;51.986;5.760;2023-05-07T06:40:17;16.80;99.90
69082;DHT22;69029;51.986;5.760;2023-05-07T06:42:42;16.80;99.90
69082;DHT22;69029;51.986;5.760;2023-05-07T06:45:08;16.80;99.90
69082;DHT22;69029;51.986;5.760;2023-05-07T06:47:34;16.80;99.90
69082;DHT22;69029;51.986;5.760;2023-05-07T06:49:59;16.80;99.90
69082;DHT22;69029;51.986;5.760;2023-05-07T06:52:25;16.80;99.90
69082;DHT22;69029;51.986;5.760;2023-05-07T06:54:51;16.90;99.90
69082;DHT22;69029;51.986;5.760;2023-05-07T06:57:17;16.90;99.90
69082;DHT22;69029;51.986;5.760;2023-05-07T06:59:42;17.00;99.90
69082;DHT22;69029;51.986;5.760;2023-05-07T07:02:08;17.10;99.90
69082;DHT22;69029;51.986;5.760;2023-05-07T07:04:33;17.10;99.90
69082;DHT22;69029;51.986;5.760;2023-05-07T07:06:59;17.20;99.90
69082;DHT22;69029;51.986;5.760;2023-05-07T07:09:25;17.30;99.90
69082;DHT22;69029;51.986;5.760;2023-05-07T07:11:50;17.30;99.90
69082;DHT22;69029;51.986;5.760;2023-05-07T07:14:16;17.40;99.90
69082;DHT22;69029;51.986;5.760;2023-05-07T07:16:42;17.50;99.90
69082;DHT22;69029;51.986;5.760;2023-05-07T07:19:08;17.50;99.80
69082;DHT22;69029;51.986;5.760;2023-05-07T07:21:33;17.60;99.90
69082;DHT22;69029;51.986;5.760;2023-05-07T07:23:59;17.70;99.10
69082;DHT22;69029;51.986;5.760;2023-05-07T07:26:24;17.80;95.60
69082;DHT22;69029;51.986;5.760;2023-05-07T07:28:50;17.80;97.60
69082;DHT22;69029;51.986;5.760;2023-05-07T07:31:16;17.90;95.70
69082;DHT22;69029;51.986;5.760;2023-05-07T07:33:41;17.90;97.30
69082;DHT22;69029;51.986;5.760;2023-05-07T07:36:10;18.00;94.50
69082;DHT22;69029;51.986;5.760;2023-05-07T07:38:36;18.00;97.30
69082;DHT22;69029;51.986;5.760;2023-05-07T07:41:01;18.10;96.30
69082;DHT22;69029;51.986;5.760;2023-05-07T07:43:27;18.20;95.40
69082;DHT22;69029;51.986;5.760;2023-05-07T07:45:53;18.20;98.60
69082;DHT22;69029;51.986;5.760;2023-05-07T07:48:18;18.30;96.50
69082;DHT22;69029;51.986;5.760;2023-05-07T07:50:44;18.40;96.40
69082;DHT22;69029;51.986;5.760;2023-05-07T07:53:10;18.40;93.00
69082;DHT22;69029;51.986;5.760;2023-05-07T07:55:39;18.50;92.60
69082;DHT22;69029;51.986;5.760;2023-05-07T07:58:05;18.60;95.70
69082;DHT22;69029;51.986;5.760;2023-05-07T08:00:30;18.80;93.90
69082;DHT22;69029;51.986;5.760;2023-05-07T08:02:56;18.80;92.10
69082;DHT22;69029;51.986;5.760;2023-05-07T08:05:23;18.90;94.40
69082;DHT22;69029;51.986;5.760;2023-05-07T08:07:48;19.10;93.60
69082;DHT22;69029;51.986;5.760;2023-05-07T08:10:17;19.20;94.90
69082;DHT22;69029;51.986;5.760;2023-05-07T08:12:47;19.20;91.50
69082;DHT22;69029;51.986;5.760;2023-05-07T08:15:13;19.30;92.60
69082;DHT22;69029;51.986;5.760;2023-05-07T08:17:38;19.30;90.20
69082;DHT22;69029;51.986;5.760;2023-05-07T08:20:05;19.40;90.30
69082;DHT22;69029;51.986;5.760;2023-05-07T08:22:30;19.50;90.60
69082;DHT22;69029;51.986;5.760;2023-05-07T08:24:56;19.60;90.90
69082;DHT22;69029;51.986;5.760;2023-05-07T08:27:21;19.70;88.20
69082;DHT22;69029;51.986;5.760;2023-05-07T08:29:47;19.80;88.40
69082;DHT22;69029;51.986;5.760;2023-05-07T08:32:14;19.90;88.30
69082;DHT22;69029;51.986;5.760;2023-05-07T08:34:40;20.00;90.40
69082;DHT22;69029;51.986;5.760;2023-05-07T08:37:05;20.00;90.10
69082;DHT22;69029;51.986;5.760;2023-05-07T08:39:31;20.00;86.20
69082;DHT22;69029;51.986;5.760;2023-05-07T08:41:58;20.00;85.10
69082;DHT22;69029;51.986;5.760;2023-05-07T08:44:26;20.10;87.30
69082;DHT22;69029;51.986;5.760;2023-05-07T08:46:53;20.10;87.00
69082;DHT22;69029;51.986;5.760;2023-05-07T08:49:21;20.20;86.60
69082;DHT22;69029;51.986;5.760;2023-05-07T08:51:47;20.30;85.80
69082;DHT22;69029;51.986;5.760;2023-05-07T08:54:16;20.40;86.50
69082;DHT22;69029;51.986;5.760;2023-05-07T08:56:41;20.50;86.20
69082;DHT22;69029;51.986;5.760;2023-05-07T08:59:07;20.60;85.30
69082;DHT22;69029;51.986;5.760;2023-05-07T09:01:33;20.70;84.30
69082;DHT22;69029;51.986;5.760;2023-05-07T09:04:00;20.70;83.90
69082;DHT22;69029;51.986;5.760;2023-05-07T09:06:26;20.80;82.70
69082;DHT22;69029;51.986;5.760;2023-05-07T09:08:54;20.90;82.40
69082;DHT22;69029;51.986;5.760;2023-05-07T09:11:21;20.90;83.60
69082;DHT22;69029;51.986;5.760;2023-05-07T09:13:47;20.90;85.60
69082;DHT22;69029;51.986;5.760;2023-05-07T09:16:13;21.00;83.90
69082;DHT22;69029;51.986;5.760;2023-05-07T09:18:45;21.00;83.20
69082;DHT22;69029;51.986;5.760;2023-05-07T09:21:15;21.10;83.40
69082;DHT22;69029;51.986;5.760;2023-05-07T09:23:41;21.20;81.00
69082;DHT22;69029;51.986;5.760;2023-05-07T09:26:07;21.30;81.10
69082;DHT22;69029;51.986;5.760;2023-05-07T09:28:39;21.40;83.80
69082;DHT22;69029;51.986;5.760;2023-05-07T09:31:05;21.50;82.20
69082;DHT22;69029;51.986;5.760;2023-05-07T09:33:31;21.60;80.50
69082;DHT22;69029;51.986;5.760;2023-05-07T09:35:56;21.60;80.60
69082;DHT22;69029;51.986;5.760;2023-05-07T09:38:22;21.70;80.60
69082;DHT22;69029;51.986;5.760;2023-05-07T09:41:04;21.80;81.30
69082;DHT22;69029;51.986;5.760;2023-05-07T09:43:34;21.90;78.40
69082;DHT22;69029;51.986;5.760;2023-05-07T09:46:13;22.00;77.30
69082;DHT22;69029;51.986;5.760;2023-05-07T09:48:41;22.00;77.50
69082;DHT22;69029;51.986;5.760;2023-05-07T09:51:30;22.20;78.60
69082;DHT22;69029;51.986;5.760;2023-05-07T09:53:57;22.40;77.40
69082;DHT22;69029;51.986;5.760;2023-05-07T09:56:25;22.60;76.00
69082;DHT22;69029;51.986;5.760;2023-05-07T09:59:00;22.60;75.80
69082;DHT22;69029;51.986;5.760;2023-05-07T10:01:27;22.70;77.50
69082;DHT22;69029;51.986;5.760;2023-05-07T10:03:53;22.70;75.60
69082;DHT22;69029;51.986;5.760;2023-05-07T10:06:23;22.80;75.40
69082;DHT22;69029;51.986;5.760;2023-05-07T10:08:50;22.90;76.90
69082;DHT22;69029;51.986;5.760;2023-05-07T10:11:16;22.90;75.30
69082;DHT22;69029;51.986;5.760;2023-05-07T10:13:43;22.90;74.90
69082;DHT22;69029;51.986;5.760;2023-05-07T10:16:08;22.90;75.10
69082;DHT22;69029;51.986;5.760;2023-05-07T10:18:34;22.90;74.90
69082;DHT22;69029;51.986;5.760;2023-05-07T10:21:20;23.00;76.60
69082;DHT22;69029;51.986;5.760;2023-05-07T10:23:50;23.00;74.50
69082;DHT22;69029;51.986;5.760;2023-05-07T10:26:18;23.10;75.40
69082;DHT22;69029;51.986;5.760;2023-05-07T10:28:49;23.00;76.30
69082;DHT22;69029;51.986;5.760;2023-05-07T10:33:42;23.20;75.00
69082;DHT22;69029;51.986;5.760;2023-05-07T10:36:09;23.30;74.70
69082;DHT22;69029;51.986;5.760;2023-05-07T10:38:35;23.60;75.40
69082;DHT22;69029;51.986;5.760;2023-05-07T10:41:01;23.80;74.20
69082;DHT22;69029;51.986;5.760;2023-05-07T10:43:43;24.10;72.50
69082;DHT22;69029;51.986;5.760;2023-05-07T10:46:11;24.40;71.40
69082;DHT22;69029;51.986;5.760;2023-05-07T10:51:29;24.80;71.70
69082;DHT22;69029;51.986;5.760;2023-05-07T10:56:43;24.80;72.40
69082;DHT22;69029;51.986;5.760;2023-05-07T11:01:59;24.80;71.50
69082;DHT22;69029;51.986;5.760;2023-05-07T11:04:25;25.00;72.20
69082;DHT22;69029;51.986;5.760;2023-05-07T11:15:07;25.30;69.80
69082;DHT22;69029;51.986;5.760;2023-05-07T11:17:33;25.40;70.20
69082;DHT22;69029;51.986;5.760;2023-05-07T11:20:02;25.40;70.60
69082;DHT22;69029;51.986;5.760;2023-05-07T11:25:05;25.60;70.70
69082;DHT22;69029;51.986;5.760;2023-05-07T11:27:32;25.90;69.70
69082;DHT22;69029;51.986;5.760;2023-05-07T11:29:58;26.00;69.20
69082;DHT22;69029;51.986;5.760;2023-05-07T11:32:31;26.10;67.70
69082;DHT22;69029;51.986;5.760;2023-05-07T11:34:59;26.20;69.00
69082;DHT22;69029;51.986;5.760;2023-05-07T11:37:26;26.20;68.90
69082;DHT22;69029;51.986;5.760;2023-05-07T11:40:06;26.20;69.60
69082;DHT22;69029;51.986;5.760;2023-05-07T11:42:34;26.10;68.90
69082;DHT22;69029;51.986;5.760;2023-05-07T11:45:00;26.00;69.60
69082;DHT22;69029;51.986;5.760;2023-05-07T11:47:26;25.90;69.70
69082;DHT22;69029;51.986;5.760;2023-05-07T11:49:55;25.80;70.20
69082;DHT22;69029;51.986;5.760;2023-05-07T11:52:23;25.80;68.50
69082;DHT22;69029;51.986;5.760;2023-05-07T11:54:54;25.80;69.20
69082;DHT22;69029;51.986;5.760;2023-05-07T11:57:26;25.90;69.80
69082;DHT22;69029;51.986;5.760;2023-05-07T11:59:59;25.80;69.80
69082;DHT22;69029;51.986;5.760;2023-05-07T12:02:25;25.80;69.00
69082;DHT22;69029;51.986;5.760;2023-05-07T12:04:51;25.90;68.80
69082;DHT22;69029;51.986;5.760;2023-05-07T12:07:17;25.90;68.60
69082;DHT22;69029;51.986;5.760;2023-05-07T12:09:44;26.00;68.30
69082;DHT22;69029;51.986;5.760;2023-05-07T12:12:11;26.10;68.00
69082;DHT22;69029;51.986;5.760;2023-05-07T12:14:41;26.20;66.60
69082;DHT22;69029;51.986;5.760;2023-05-07T12:17:11;26.10;67.40
69082;DHT22;69029;51.986;5.760;2023-05-07T12:19:38;26.10;68.10
69082;DHT22;69029;51.986;5.760;2023-05-07T12:22:05;26.20;67.20
69082;DHT22;69029;51.986;5.760;2023-05-07T12:25:01;26.20;68.70
69082;DHT22;69029;51.986;5.760;2023-05-07T12:27:28;26.30;67.50
69082;DHT22;69029;51.986;5.760;2023-05-07T12:29:54;26.50;67.20
69082;DHT22;69029;51.986;5.760;2023-05-07T12:32:20;26.60;66.80
69082;DHT22;69029;51.986;5.760;2023-05-07T12:34:50;26.70;66.10
69082;DHT22;69029;51.986;5.760;2023-05-07T12:37:16;26.70;66.30
69082;DHT22;69029;51.986;5.760;2023-05-07T12:39:47;26.80;65.80
69082;DHT22;69029;51.986;5.760;2023-05-07T12:42:16;27.00;65.70
69082;DHT22;69029;51.986;5.760;2023-05-07T12:44:46;27.20;65.70
69082;DHT22;69029;51.986;5.760;2023-05-07T12:47:11;27.50;61.80
69082;DHT22;69029;51.986;5.760;2023-05-07T12:49:38;28.20;62.80
69082;DHT22;69029;51.986;5.760;2023-05-07T12:52:04;28.60;62.90
69082;DHT22;69029;51.986;5.760;2023-05-07T12:54:31;28.40;63.40
69082;DHT22;69029;51.986;5.760;2023-05-07T12:57:08;28.10;63.30
69082;DHT22;69029;51.986;5.760;2023-05-07T12:59:39;27.80;65.20
69082;DHT22;69029;51.986;5.760;2023-05-07T13:02:05;27.80;64.30
69082;DHT22;69029;51.986;5.760;2023-05-07T13:04:31;27.80;67.10
69082;DHT22;69029;51.986;5.760;2023-05-07T13:06:58;27.90;65.10
69082;DHT22;69029;51.986;5.760;2023-05-07T13:09:23;27.80;64.50
69082;DHT22;69029;51.986;5.760;2023-05-07T13:11:49;27.70;65.80
69082;DHT22;69029;51.986;5.760;2023-05-07T13:14:15;27.70;66.20
69082;DHT22;69029;51.986;5.760;2023-05-07T13:16:41;27.60;66.20
69082;DHT22;69029;51.986;5.760;2023-05-07T13:19:06;27.50;66.20
69082;DHT22;69029;51.986;5.760;2023-05-07T13:21:32;27.50;65.60
69082;DHT22;69029;51.986;5.760;2023-05-07T13:23:58;27.40;65.90
69082;DHT22;69029;51.986;5.760;2023-05-07T13:26:24;27.40;64.20
69082;DHT22;69029;51.986;5.760;2023-05-07T13:28:50;27.50;65.20
69082;DHT22;69029;51.986;5.760;2023-05-07T13:31:19;27.50;65.40
69082;DHT22;69029;51.986;5.760;2023-05-07T13:33:46;27.40;63.70
69082;DHT22;69029;51.986;5.760;2023-05-07T13:36:12;27.30;63.70
69082;DHT22;69029;51.986;5.760;2023-05-07T13:38:37;27.50;66.60
69082;DHT22;69029;51.986;5.760;2023-05-07T13:41:03;27.60;64.80
69082;DHT22;69029;51.986;5.760;2023-05-07T13:43:28;27.80;64.80
69082;DHT22;69029;51.986;5.760;2023-05-07T13:45:54;28.00;63.50
69082;DHT22;69029;51.986;5.760;2023-05-07T13:48:19;28.20;62.40
69082;DHT22;69029;51.986;5.760;2023-05-07T13:50:45;28.50;61.70
69082;DHT22;69029;51.986;5.760;2023-05-07T13:53:10;28.70;61.90
69082;DHT22;69029;51.986;5.760;2023-05-07T13:55:36;28.90;61.10
69082;DHT22;69029;51.986;5.760;2023-05-07T13:58:03;29.00;61.00
69082;DHT22;69029;51.986;5.760;2023-05-07T14:00:29;29.00;61.10
69082;DHT22;69029;51.986;5.760;2023-05-07T14:02:55;28.80;61.70
69082;DHT22;69029;51.986;5.760;2023-05-07T14:05:22;28.60;60.90
69082;DHT22;69029;51.986;5.760;2023-05-07T14:07:51;28.50;62.80
69082;DHT22;69029;51.986;5.760;2023-05-07T14:10:18;28.30;62.60
69082;DHT22;69029;51.986;5.760;2023-05-07T14:12:44;28.30;62.70
69082;DHT22;69029;51.986;5.760;2023-05-07T14:15:10;28.10;63.10
69082;DHT22;69029;51.986;5.760;2023-05-07T14:17:36;27.90;62.30
69082;DHT22;69029;51.986;5.760;2023-05-07T14:20:02;27.80;63.60
69082;DHT22;69029;51.986;5.760;2023-05-07T14:22:28;27.80;64.60
69082;DHT22;69029;51.986;5.760;2023-05-07T14:24:54;27.80;64.30
69082;DHT22;69029;51.986;5.760;2023-05-07T14:27:19;28.30;63.70
69082;DHT22;69029;51.986;5.760;2023-05-07T14:29:45;28.50;61.30
69082;DHT22;69029;51.986;5.760;2023-05-07T14:32:19;28.50;61.70
69082;DHT22;69029;51.986;5.760;2023-05-07T14:34:45;28.20;62.10
69082;DHT22;69029;51.986;5.760;2023-05-07T14:37:11;27.90;62.80
69082;DHT22;69029;51.986;5.760;2023-05-07T14:39:37;27.70;62.80
69082;DHT22;69029;51.986;5.760;2023-05-07T14:42:03;27.40;63.60
69082;DHT22;69029;51.986;5.760;2023-05-07T14:46:57;27.10;63.90
69082;DHT22;69029;51.986;5.760;2023-05-07T14:49:22;27.00;63.20
69082;DHT22;69029;51.986;5.760;2023-05-07T14:51:49;26.80;64.50
69082;DHT22;69029;51.986;5.760;2023-05-07T14:54:15;26.70;63.40
69082;DHT22;69029;51.986;5.760;2023-05-07T14:56:41;26.50;65.20
69082;DHT22;69029;51.986;5.760;2023-05-07T14:59:07;26.40;64.00
69082;DHT22;69029;51.986;5.760;2023-05-07T15:01:36;26.20;64.80
69082;DHT22;69029;51.986;5.760;2023-05-07T15:04:05;26.10;65.20
69082;DHT22;69029;51.986;5.760;2023-05-07T15:06:37;26.00;65.40
69082;DHT22;69029;51.986;5.760;2023-05-07T15:09:02;25.90;64.80
69082;DHT22;69029;51.986;5.760;2023-05-07T15:11:31;25.80;65.90
69082;DHT22;69029;51.986;5.760;2023-05-07T15:13:57;25.80;66.40
69082;DHT22;69029;51.986;5.760;2023-05-07T15:16:23;25.80;66.00
69082;DHT22;69029;51.986;5.760;2023-05-07T15:18:48;25.70;66.10
69082;DHT22;69029;51.986;5.760;2023-05-07T15:21:14;25.80;66.20
69082;DHT22;69029;51.986;5.760;2023-05-07T15:23:40;25.80;66.50
69082;DHT22;69029;51.986;5.760;2023-05-07T15:26:06;25.70;66.40
69082;DHT22;69029;51.986;5.760;2023-05-07T15:28:33;25.40;65.50
69082;DHT22;69029;51.986;5.760;2023-05-07T15:30:59;24.90;67.20
69082;DHT22;69029;51.986;5.760;2023-05-07T15:33:25;24.60;68.00
69082;DHT22;69029;51.986;5.760;2023-05-07T15:35:50;24.40;68.10
69082;DHT22;69029;51.986;5.760;2023-05-07T15:38:16;24.20;69.60
69082;DHT22;69029;51.986;5.760;2023-05-07T15:40:43;24.00;68.10
69082;DHT22;69029;51.986;5.760;2023-05-07T15:43:12;23.70;69.10
69082;DHT22;69029;51.986;5.760;2023-05-07T15:45:41;23.40;70.40
69082;DHT22;69029;51.986;5.760;2023-05-07T15:48:10;23.30;70.20
69082;DHT22;69029;51.986;5.760;2023-05-07T15:50:36;23.20;70.40